Time;durP1;ratioP1;P1;durP2;ratioP2;P2;SDS_P1;SDS_P2;PMS_P1;PMS_P2;Temp;Humidity;BMP_temperature;BMP_pressure;BME280_temperature;BME280_humidity;BME280_pressure;Samples;Min_cycle;Max_cycle;Signal;HPM_P1;HPM_P2
2022/03/03 00:01:53;;;;;;;2.63;1.73;;;10.10;99.90;;;;;;6299764;22;20201;-93
2022/03/03 00:04:27;;;;;;;5.07;1.33;;;10.00;99.90;;;;;;6329870;22;20186;-94
2022/03/03 00:07:00;;;;;;;2.53;1.20;;;10.00;99.90;;;;;;6329168;22;20179;-96
2022/03/03 00:09:37;;;;;;;3.30;1.40;;;10.00;99.90;;;;;;6327203;22;20166;-94
2022/03/03 00:12:10;;;;;;;5.63;1.50;;;10.00;99.90;;;;;;6303054;22;20182;-94
2022/03/03 00:14:42;;;;;;;2.80;1.40;;;9.90;99.90;;;;;;6330775;22;20162;-94
2022/03/03 00:17:14;;;;;;;3.20;1.20;;;9.90;99.90;;;;;;6332009;22;20162;-93
2022/03/03 00:19:48;;;;;;;3.27;1.10;;;9.90;99.90;;;;;;6327114;22;20166;-95
2022/03/03 00:22:20;;;;;;;3.53;1.23;;;9.90;99.90;;;;;;6304010;22;20186;-93
2022/03/03 00:24:52;;;;;;;5.63;1.63;;;9.90;99.90;;;;;;6324382;22;20163;-95
2022/03/03 00:27:24;;;;;;;4.90;1.20;;;9.90;99.90;;;;;;6326112;22;20198;-94
2022/03/03 00:29:56;;;;;;;6.30;1.30;;;9.90;99.90;;;;;;6326517;22;20178;-95
2022/03/03 00:32:28;;;;;;;2.90;1.13;;;9.90;99.90;;;;;;6268279;22;20509;-94
2022/03/03 00:35:02;;;;;;;1.73;1.13;;;9.90;99.90;;;;;;6314216;22;20453;-95
2022/03/03 00:37:34;;;;;;;6.23;1.30;;;9.90;99.90;;;;;;6312923;22;20167;-96
2022/03/03 00:40:06;;;;;;;5.40;1.80;;;9.90;99.90;;;;;;6311291;22;20194;-95
2022/03/03 00:42:37;;;;;;;3.47;1.30;;;9.80;99.90;;;;;;6314477;22;20190;-94
2022/03/03 00:45:09;;;;;;;6.27;1.60;;;9.90;99.90;;;;;;6312080;22;20231;-93
2022/03/03 00:47:41;;;;;;;5.57;1.53;;;9.80;99.90;;;;;;6310958;22;20162;-94
2022/03/03 00:50:15;;;;;;;3.70;1.10;;;9.80;99.90;;;;;;6317517;22;20636;-95
2022/03/03 00:52:46;;;;;;;4.50;1.37;;;9.80;99.90;;;;;;6284718;22;20213;-95
2022/03/03 00:55:17;;;;;;;4.60;1.90;;;9.70;99.90;;;;;;6312244;22;20230;-94
2022/03/03 00:57:54;;;;;;;3.07;1.53;;;9.70;99.90;;;;;;6315510;22;20185;-95
2022/03/03 01:00:25;;;;;;;3.10;1.30;;;9.70;99.90;;;;;;6287459;22;20221;-96
2022/03/03 01:02:56;;;;;;;4.73;1.60;;;9.60;99.90;;;;;;6319737;22;20190;-93
2022/03/03 01:05:31;;;;;;;5.40;1.67;;;9.60;99.90;;;;;;6332178;22;20238;-95
2022/03/03 01:08:03;;;;;;;6.80;1.60;;;9.60;99.90;;;;;;6333210;22;20208;-94
2022/03/03 01:10:34;;;;;;;5.40;1.40;;;9.60;99.90;;;;;;6301427;22;20166;-94
2022/03/03 01:13:05;;;;;;;7.90;1.93;;;9.60;99.90;;;;;;6330180;22;20166;-94
2022/03/03 01:15:36;;;;;;;4.43;1.40;;;9.60;99.90;;;;;;6322667;22;20184;-94
2022/03/03 01:18:07;;;;;;;6.07;1.60;;;9.60;99.90;;;;;;6319842;22;20167;-95
2022/03/03 01:20:40;;;;;;;7.03;2.10;;;9.60;99.90;;;;;;6323465;22;20186;-94
2022/03/03 01:23:12;;;;;;;5.53;1.50;;;9.50;99.90;;;;;;6311500;22;20185;-95
2022/03/03 01:25:46;;;;;;;4.57;1.30;;;9.50;99.90;;;;;;6324708;22;20186;-95
2022/03/03 01:28:17;;;;;;;6.00;1.50;;;9.50;99.90;;;;;;6327971;22;20185;-94
2022/03/03 01:30:52;;;;;;;6.33;1.43;;;9.50;99.90;;;;;;6332203;22;20165;-95
2022/03/03 01:33:25;;;;;;;5.03;1.30;;;9.50;99.90;;;;;;6332307;22;20154;-95
2022/03/03 01:35:59;;;;;;;4.70;1.47;;;9.40;99.90;;;;;;6327669;22;20167;-94
2022/03/03 01:38:30;;;;;;;6.30;1.80;;;9.40;99.90;;;;;;6325848;22;20223;-95
2022/03/03 01:41:01;;;;;;;5.23;1.90;;;9.40;99.90;;;;;;6298273;22;20198;-93
2022/03/03 01:43:32;;;;;;;7.23;1.77;;;9.40;99.90;;;;;;6325584;22;20205;-94
2022/03/03 01:46:04;;;;;;;8.60;2.00;;;9.40;99.90;;;;;;6327987;22;20167;-94
2022/03/03 01:48:35;;;;;;;8.13;2.27;;;9.30;99.90;;;;;;6327621;22;20178;-92
2022/03/03 01:51:09;;;;;;;6.37;2.43;;;9.30;99.90;;;;;;6326639;22;20204;-93
2022/03/03 01:53:40;;;;;;;9.27;1.80;;;9.30;99.90;;;;;;6301068;22;20167;-94
2022/03/03 01:56:12;;;;;;;5.43;1.60;;;9.30;99.90;;;;;;6305750;22;20187;-95
2022/03/03 01:58:43;;;;;;;7.90;2.30;;;9.30;99.90;;;;;;6332986;22;20178;-93
2022/03/03 02:01:16;;;;;;;4.87;1.80;;;9.30;99.90;;;;;;6334683;22;20198;-94
2022/03/03 02:03:51;;;;;;;3.67;1.30;;;9.30;99.90;;;;;;6334697;22;20256;-92
2022/03/03 02:06:24;;;;;;;6.30;1.73;;;9.30;99.90;;;;;;6309478;22;20163;-93
2022/03/03 02:08:55;;;;;;;10.20;2.00;;;9.30;99.90;;;;;;6334082;22;20182;-95
2022/03/03 02:11:27;;;;;;;7.77;1.70;;;9.30;99.90;;;;;;6334457;22;20197;-94
2022/03/03 02:13:59;;;;;;;4.53;1.60;;;9.30;99.90;;;;;;6334753;22;20155;-93
2022/03/03 02:16:30;;;;;;;7.23;1.63;;;9.20;99.90;;;;;;6334318;22;20162;-95
2022/03/03 02:19:01;;;;;;;6.83;1.87;;;9.20;99.90;;;;;;6333230;22;20178;-94
2022/03/03 02:21:36;;;;;;;10.70;2.37;;;9.20;99.90;;;;;;6332391;22;20248;-93
2022/03/03 02:24:08;;;;;;;7.00;1.80;;;9.20;99.90;;;;;;6334561;22;20173;-94
2022/03/03 02:26:41;;;;;;;6.67;1.80;;;9.20;99.90;;;;;;6334486;22;20174;-94
2022/03/03 02:29:13;;;;;;;6.23;1.90;;;9.20;99.90;;;;;;6303284;22;20309;-95
2022/03/03 02:31:45;;;;;;;8.07;2.17;;;9.20;99.90;;;;;;6305382;22;20155;-94
2022/03/03 02:34:17;;;;;;;7.80;2.40;;;9.10;99.90;;;;;;6304069;22;20223;-95
2022/03/03 02:36:51;;;;;;;10.00;2.40;;;9.10;99.90;;;;;;6309122;22;20193;-84
2022/03/03 02:39:24;;;;;;;9.67;2.50;;;9.10;99.90;;;;;;6335982;22;20158;-94
2022/03/03 02:41:56;;;;;;;5.20;2.10;;;9.10;99.90;;;;;;6333950;22;20198;-94
2022/03/03 02:44:27;;;;;;;7.10;2.37;;;9.20;99.90;;;;;;6334242;22;20155;-95
2022/03/03 02:46:58;;;;;;;7.40;2.37;;;9.20;99.90;;;;;;6333959;22;20178;-93
2022/03/03 02:49:29;;;;;;;8.13;2.20;;;9.20;99.90;;;;;;6333482;22;20185;-94
2022/03/03 02:52:02;;;;;;;6.27;1.90;;;9.20;99.90;;;;;;6330211;22;20166;-95
2022/03/03 02:54:34;;;;;;;7.40;1.80;;;9.20;99.90;;;;;;6329769;22;20177;-94
2022/03/03 02:59:53;;;;;;;8.23;1.90;;;9.10;99.90;;;;;;6322519;22;20216;-95
2022/03/03 03:02:24;;;;;;;10.00;2.60;;;9.10;99.90;;;;;;6321794;22;20194;-93
2022/03/03 03:04:55;;;;;;;9.90;2.50;;;9.10;99.90;;;;;;6324572;22;20218;-94
2022/03/03 03:07:29;;;;;;;7.53;2.33;;;9.10;99.90;;;;;;6331944;22;20168;-93
2022/03/03 03:10:00;;;;;;;6.20;2.17;;;9.10;99.90;;;;;;6334537;22;20210;-90
2022/03/03 03:12:32;;;;;;;9.13;2.40;;;9.00;99.90;;;;;;6327857;22;20194;-94
2022/03/03 03:15:06;;;;;;;5.67;1.70;;;9.00;99.90;;;;;;6336536;22;20178;-93
2022/03/03 03:17:38;;;;;;;11.17;2.70;;;8.90;99.90;;;;;;6333863;22;20687;-94
2022/03/03 03:20:10;;;;;;;9.30;2.77;;;8.90;99.90;;;;;;6333624;22;20158;-94
2022/03/03 03:22:44;;;;;;;12.90;2.60;;;8.80;99.90;;;;;;6336303;22;20182;-91
2022/03/03 03:25:16;;;;;;;9.23;2.60;;;8.80;99.90;;;;;;6335775;22;20165;-94
2022/03/03 03:27:47;;;;;;;9.53;2.43;;;8.80;99.90;;;;;;6332183;22;20224;-94
2022/03/03 03:32:54;;;;;;;9.97;2.60;;;8.80;99.90;;;;;;6329190;22;20216;-93
2022/03/03 03:35:27;;;;;;;9.87;2.43;;;8.80;99.90;;;;;;6325993;22;20237;-94
2022/03/03 03:38:00;;;;;;;8.57;2.00;;;8.80;99.90;;;;;;6327613;22;20193;-94
2022/03/03 03:40:31;;;;;;;14.27;2.47;;;8.70;99.90;;;;;;6327765;22;20170;-94
2022/03/03 03:43:03;;;;;;;8.30;2.03;;;8.80;99.90;;;;;;6301386;22;20206;-93
2022/03/03 03:45:36;;;;;;;10.17;2.53;;;8.70;99.90;;;;;;6325437;22;20170;-94
2022/03/03 03:48:08;;;;;;;7.87;1.90;;;8.70;99.90;;;;;;6326093;22;20182;-93
2022/03/03 03:50:40;;;;;;;9.97;2.70;;;8.70;99.90;;;;;;6326757;22;20197;-93
2022/03/03 03:53:13;;;;;;;10.47;2.50;;;8.70;99.90;;;;;;6326900;22;20174;-94
2022/03/03 03:55:44;;;;;;;13.40;3.03;;;8.60;99.90;;;;;;6327043;22;20170;-94
2022/03/03 03:58:16;;;;;;;5.80;2.40;;;8.60;99.90;;;;;;6323553;22;20182;-94
2022/03/03 04:00:46;;;;;;;7.50;2.57;;;8.70;99.90;;;;;;6328687;22;20181;-93
2022/03/03 04:03:20;;;;;;;12.33;3.00;;;8.70;99.90;;;;;;6329327;22;20205;-95
2022/03/03 04:05:51;;;;;;;8.27;2.60;;;8.60;99.90;;;;;;6301117;22;20182;-95
2022/03/03 04:08:25;;;;;;;12.37;3.33;;;8.60;99.90;;;;;;6323876;22;20363;-95
2022/03/03 04:10:58;;;;;;;10.63;3.57;;;8.60;99.90;;;;;;6326326;22;20166;-95
2022/03/03 04:13:30;;;;;;;10.60;3.70;;;8.60;99.90;;;;;;6322528;22;20170;-94
2022/03/03 04:16:02;;;;;;;10.13;3.03;;;8.60;99.90;;;;;;6308048;22;20184;-93
2022/03/03 04:18:34;;;;;;;12.43;3.60;;;8.60;99.90;;;;;;6308071;22;20166;-93
2022/03/03 04:21:06;;;;;;;13.97;4.00;;;8.50;99.90;;;;;;6304839;22;20189;-94
2022/03/03 04:23:40;;;;;;;11.17;2.67;;;8.50;99.90;;;;;;6327537;22;20194;-94
2022/03/03 04:26:11;;;;;;;10.63;2.30;;;8.50;99.90;;;;;;6328388;22;20166;-94
2022/03/03 04:28:42;;;;;;;13.40;3.30;;;8.50;99.90;;;;;;6326895;22;20204;-94
2022/03/03 04:31:14;;;;;;;10.27;2.10;;;8.50;99.90;;;;;;6332062;22;20165;-93
2022/03/03 04:33:48;;;;;;;7.37;1.90;;;8.50;99.90;;;;;;6330155;22;20166;-94
2022/03/03 04:36:20;;;;;;;8.83;2.83;;;8.50;99.90;;;;;;6325520;22;20167;-95
2022/03/03 04:38:53;;;;;;;11.77;2.10;;;8.50;99.90;;;;;;6323898;22;20163;-95
2022/03/03 04:41:25;;;;;;;9.83;2.83;;;8.40;99.90;;;;;;6325677;22;20491;-95
2022/03/03 04:43:57;;;;;;;7.40;1.87;;;8.40;99.90;;;;;;6326341;22;20195;-94
2022/03/03 04:46:28;;;;;;;11.17;2.13;;;8.40;99.90;;;;;;6326179;22;20229;-94
2022/03/03 04:49:01;;;;;;;14.17;2.27;;;8.40;99.90;;;;;;6326159;22;20199;-94
2022/03/03 04:51:36;;;;;;;7.40;2.30;;;8.40;99.90;;;;;;6329094;22;20189;-94
2022/03/03 04:54:11;;;;;;;12.73;3.27;;;8.40;99.90;;;;;;6328156;22;20182;-94
2022/03/03 04:56:43;;;;;;;9.50;2.10;;;8.50;99.90;;;;;;6326535;22;20170;-95
2022/03/03 04:59:14;;;;;;;9.07;2.37;;;8.40;99.90;;;;;;6325743;22;20312;-95
2022/03/03 05:01:47;;;;;;;11.03;2.47;;;8.40;99.90;;;;;;6300846;22;20163;-94
2022/03/03 05:04:19;;;;;;;12.13;2.77;;;8.40;99.90;;;;;;6327621;22;20243;-94
2022/03/03 05:06:51;;;;;;;11.80;2.47;;;8.40;99.90;;;;;;6327541;22;20216;-96
2022/03/03 05:09:24;;;;;;;11.97;2.43;;;8.40;99.90;;;;;;6329261;22;20169;-94
2022/03/03 05:11:57;;;;;;;13.20;2.93;;;8.40;99.90;;;;;;6329545;22;20585;-93
2022/03/03 05:14:29;;;;;;;11.60;2.77;;;8.30;99.90;;;;;;6327838;22;20162;-93
2022/03/03 05:17:01;;;;;;;14.57;3.50;;;8.40;99.90;;;;;;6283860;22;20209;-93
2022/03/03 05:19:33;;;;;;;12.33;2.40;;;8.40;99.90;;;;;;6326845;22;20174;-93
2022/03/03 05:22:04;;;;;;;10.00;2.27;;;8.30;99.90;;;;;;6320567;22;20166;-93
2022/03/03 05:24:38;;;;;;;15.00;2.90;;;8.30;99.90;;;;;;6291908;22;20190;-94
2022/03/03 05:27:10;;;;;;;8.23;2.10;;;8.30;99.90;;;;;;6310967;22;20183;-92
2022/03/03 05:29:41;;;;;;;8.97;2.47;;;8.30;99.90;;;;;;6317373;22;20196;-95
2022/03/03 05:32:12;;;;;;;7.97;2.47;;;8.20;99.90;;;;;;6332619;22;20150;-93
2022/03/03 05:34:43;;;;;;;10.20;2.90;;;8.20;99.90;;;;;;6334139;22;20154;-95
2022/03/03 05:37:21;;;;;;;12.10;2.57;;;8.20;99.90;;;;;;6328845;22;20170;-94
2022/03/03 05:39:55;;;;;;;13.37;2.73;;;8.20;99.90;;;;;;6327022;22;20183;-95
2022/03/03 05:42:26;;;;;;;10.57;2.80;;;8.20;99.90;;;;;;6333412;22;20537;-96
2022/03/03 05:44:58;;;;;;;15.17;3.00;;;8.20;99.90;;;;;;6326545;22;20579;-92
2022/03/03 05:47:30;;;;;;;11.53;2.53;;;8.20;99.90;;;;;;6309143;22;20166;-93
2022/03/03 05:50:03;;;;;;;7.53;2.57;;;8.20;99.90;;;;;;6313119;22;20251;-94
2022/03/03 05:52:36;;;;;;;13.50;2.70;;;8.20;99.90;;;;;;6320859;22;20150;-93
2022/03/03 05:55:10;;;;;;;13.57;2.50;;;8.20;99.90;;;;;;6326333;22;20159;-95
2022/03/03 05:57:46;;;;;;;16.13;2.53;;;8.20;99.90;;;;;;6320948;22;20243;-94
2022/03/03 06:00:19;;;;;;;10.27;2.43;;;8.20;99.90;;;;;;6311167;22;20190;-95
2022/03/03 06:02:52;;;;;;;11.80;2.40;;;8.20;99.90;;;;;;6314899;22;20185;-92
2022/03/03 06:05:27;;;;;;;10.47;2.20;;;8.20;99.90;;;;;;6313634;22;20173;-94
2022/03/03 06:08:07;;;;;;;11.40;2.40;;;8.20;99.90;;;;;;6315393;22;20205;-93
2022/03/03 06:10:47;;;;;;;8.57;2.23;;;8.20;99.90;;;;;;6313462;22;20506;-95
2022/03/03 06:13:23;;;;;;;9.13;2.20;;;8.20;99.90;;;;;;6318683;22;20177;-94
2022/03/03 06:15:55;;;;;;;10.27;2.43;;;8.10;99.90;;;;;;6317030;22;20504;-94
2022/03/03 06:18:30;;;;;;;8.93;2.33;;;8.10;99.90;;;;;;6310795;22;20213;-94
2022/03/03 06:21:01;;;;;;;10.93;2.70;;;8.10;99.90;;;;;;6312264;22;20196;-93
2022/03/03 06:23:32;;;;;;;12.57;2.70;;;8.20;99.90;;;;;;6311939;22;20225;-93
2022/03/03 06:26:06;;;;;;;6.40;1.83;;;8.10;99.90;;;;;;6328127;22;20289;-93
2022/03/03 06:28:38;;;;;;;10.23;2.23;;;8.20;99.90;;;;;;6318561;22;20648;-94
2022/03/03 06:31:09;;;;;;;10.30;2.30;;;8.20;99.90;;;;;;6316332;22;20225;-94
2022/03/03 06:33:40;;;;;;;10.43;2.30;;;8.20;99.90;;;;;;6314428;22;20220;-93
2022/03/03 06:36:11;;;;;;;7.47;2.23;;;8.30;99.90;;;;;;6316792;22;20289;-92
2022/03/03 06:38:42;;;;;;;12.73;2.80;;;8.20;99.90;;;;;;6313785;22;20202;-94
2022/03/03 06:41:16;;;;;;;8.33;2.30;;;8.30;99.90;;;;;;6315764;22;20186;-94
2022/03/03 06:43:47;;;;;;;13.77;2.20;;;8.30;99.90;;;;;;6314156;22;20194;-95
2022/03/03 06:46:18;;;;;;;11.17;2.57;;;8.30;99.90;;;;;;6311956;22;20246;-95
2022/03/03 06:48:49;;;;;;;11.73;3.07;;;8.30;99.90;;;;;;6287577;22;20175;-95
2022/03/03 06:51:23;;;;;;;12.17;2.73;;;8.30;99.90;;;;;;6287784;22;20186;-94
2022/03/03 06:53:57;;;;;;;9.47;2.37;;;8.30;99.90;;;;;;6311183;22;20177;-94
2022/03/03 06:56:32;;;;;;;8.83;3.13;;;8.30;99.90;;;;;;6284823;22;20220;-93
2022/03/03 06:59:04;;;;;;;9.43;2.23;;;8.30;99.90;;;;;;6309812;22;20170;-93
2022/03/03 07:01:35;;;;;;;11.33;2.47;;;8.30;99.90;;;;;;6314544;22;20204;-94
2022/03/03 07:04:07;;;;;;;10.93;2.50;;;8.30;99.90;;;;;;6310925;22;20239;-94
2022/03/03 07:06:39;;;;;;;14.83;2.90;;;8.30;99.90;;;;;;6311191;22;20225;-94
2022/03/03 07:09:10;;;;;;;10.70;2.60;;;8.30;99.90;;;;;;6311473;22;20682;-94
2022/03/03 07:11:45;;;;;;;12.13;2.67;;;8.30;99.90;;;;;;6312614;22;20178;-94
2022/03/03 07:14:17;;;;;;;9.90;2.50;;;8.30;99.90;;;;;;6312117;22;20494;-94
2022/03/03 07:16:55;;;;;;;9.53;3.00;;;8.30;99.90;;;;;;6312249;22;20174;-94
2022/03/03 07:19:42;;;;;;;10.77;3.07;;;8.30;99.90;;;;;;6318645;22;20197;-95
2022/03/03 07:22:20;;;;;;;16.80;3.23;;;8.30;99.90;;;;;;6312434;22;20182;-93
2022/03/03 07:24:59;;;;;;;10.17;2.37;;;8.30;99.90;;;;;;6312871;22;20190;-94
2022/03/03 07:27:35;;;;;;;7.80;2.30;;;8.30;99.90;;;;;;6310550;22;20174;-94
2022/03/03 07:30:08;;;;;;;11.07;3.10;;;8.30;99.90;;;;;;6311226;22;20177;-94
2022/03/03 07:32:40;;;;;;;10.97;2.63;;;8.30;99.90;;;;;;6310417;22;20204;-95
2022/03/03 07:35:13;;;;;;;10.10;2.73;;;8.30;99.90;;;;;;6314399;22;20177;-95
2022/03/03 07:37:53;;;;;;;9.30;2.57;;;8.30;99.90;;;;;;6310358;22;20194;-94
2022/03/03 07:40:29;;;;;;;6.03;2.40;;;8.20;99.90;;;;;;6311378;22;20605;-94
2022/03/03 07:43:02;;;;;;;8.87;2.37;;;8.20;99.90;;;;;;6311571;22;20207;-95
2022/03/03 07:45:33;;;;;;;9.97;3.03;;;8.20;99.90;;;;;;6335272;22;20179;-94
2022/03/03 07:48:04;;;;;;;9.17;2.30;;;8.20;99.90;;;;;;6334691;22;20166;-96
2022/03/03 07:50:39;;;;;;;10.60;2.83;;;8.10;99.90;;;;;;6334350;22;20178;-95
2022/03/03 07:53:12;;;;;;;9.80;2.20;;;8.10;99.90;;;;;;6322231;22;20174;-94
2022/03/03 07:55:47;;;;;;;4.53;1.60;;;8.20;99.90;;;;;;6333842;22;20178;-93
2022/03/03 07:58:22;;;;;;;4.80;1.50;;;8.00;99.90;;;;;;6321846;22;20181;-93
2022/03/03 08:00:55;;;;;;;3.83;1.30;;;8.00;99.90;;;;;;6312040;22;20174;-95
2022/03/03 08:03:27;;;;;;;4.27;1.50;;;8.00;99.90;;;;;;6318880;22;20174;-94
2022/03/03 08:05:59;;;;;;;6.60;2.20;;;7.90;99.90;;;;;;6294508;22;20187;-92
2022/03/03 08:08:31;;;;;;;4.17;1.73;;;8.00;99.90;;;;;;6312816;22;20178;-93
2022/03/03 08:11:06;;;;;;;7.17;2.07;;;8.00;99.90;;;;;;6314106;22;20209;-92
2022/03/03 08:13:39;;;;;;;5.07;1.43;;;7.90;99.90;;;;;;6317022;22;20170;-94
2022/03/03 08:16:10;;;;;;;4.67;1.47;;;7.80;99.90;;;;;;6312794;22;20491;-94
2022/03/03 08:18:42;;;;;;;5.27;1.40;;;7.80;99.90;;;;;;6310496;22;20235;-94
2022/03/03 08:21:15;;;;;;;7.30;2.10;;;7.80;99.90;;;;;;6314784;22;20205;-94
2022/03/03 08:23:46;;;;;;;4.57;1.60;;;7.70;99.90;;;;;;6287841;22;20190;-94
2022/03/03 08:26:19;;;;;;;5.57;2.00;;;7.70;99.90;;;;;;6287972;22;20285;-94
2022/03/03 08:28:51;;;;;;;3.50;1.63;;;7.60;99.90;;;;;;6313140;22;20186;-93
2022/03/03 08:31:29;;;;;;;5.30;1.83;;;7.70;99.90;;;;;;6312680;22;20185;-94
2022/03/03 08:34:12;;;;;;;4.03;1.67;;;7.60;99.90;;;;;;6315708;22;20181;-95
2022/03/03 08:36:47;;;;;;;5.67;1.53;;;7.60;99.90;;;;;;6326929;22;20168;-94
2022/03/03 08:39:23;;;;;;;5.70;2.00;;;7.60;99.90;;;;;;6333825;22;20160;-93
2022/03/03 08:41:57;;;;;;;6.27;1.73;;;7.50;99.90;;;;;;6333359;22;20149;-92
2022/03/03 08:44:54;;;;;;;6.70;2.03;;;7.60;99.90;;;;;;6326469;22;20210;-92
2022/03/03 08:47:26;;;;;;;5.70;1.60;;;7.60;99.90;;;;;;6318388;22;20189;-95
2022/03/03 08:50:00;;;;;;;5.57;1.70;;;7.60;99.90;;;;;;6317155;22;20201;-94
2022/03/03 08:52:52;;;;;;;6.53;1.70;;;7.50;99.90;;;;;;6316897;22;20252;-94
2022/03/03 08:55:23;;;;;;;6.47;1.50;;;7.50;99.90;;;;;;6310630;22;20178;-94
2022/03/03 08:57:55;;;;;;;4.57;2.13;;;7.60;99.90;;;;;;6287642;22;20169;-90
2022/03/03 09:00:28;;;;;;;6.37;1.67;;;7.60;99.90;;;;;;6311297;22;20181;-94
2022/03/03 09:03:00;;;;;;;6.80;2.10;;;7.60;99.90;;;;;;6311384;22;20181;-95
2022/03/03 09:05:32;;;;;;;5.70;2.03;;;7.60;99.90;;;;;;6313786;22;20205;-95
2022/03/03 09:08:03;;;;;;;5.97;2.30;;;7.60;99.90;;;;;;6312840;22;20245;-93
2022/03/03 09:10:35;;;;;;;3.93;1.20;;;7.50;99.90;;;;;;6322613;22;20177;-94
2022/03/03 09:13:06;;;;;;;7.20;1.43;;;7.50;99.90;;;;;;6319950;22;20239;-94
2022/03/03 09:15:39;;;;;;;5.60;1.57;;;7.50;99.90;;;;;;6312062;22;20597;-95
2022/03/03 09:18:11;;;;;;;5.03;1.63;;;7.50;99.90;;;;;;6311930;22;20187;-94
2022/03/03 09:20:42;;;;;;;5.07;1.63;;;7.60;99.90;;;;;;6293832;22;20181;-93
2022/03/03 09:23:14;;;;;;;5.20;1.60;;;7.70;99.90;;;;;;6319942;22;20281;-95
2022/03/03 09:25:45;;;;;;;2.80;1.20;;;7.70;99.90;;;;;;6328268;22;20199;-95
2022/03/03 09:28:16;;;;;;;6.03;2.00;;;7.70;99.90;;;;;;6331523;22;20191;-95
2022/03/03 09:30:51;;;;;;;8.93;1.70;;;7.70;99.90;;;;;;6316878;22;20249;-93
2022/03/03 09:33:22;;;;;;;6.73;1.53;;;7.70;99.90;;;;;;6310610;22;20515;-94
2022/03/03 09:35:53;;;;;;;5.13;1.30;;;7.70;99.90;;;;;;6310614;22;20190;-95
2022/03/03 09:38:25;;;;;;;4.73;1.13;;;7.70;99.90;;;;;;6309704;22;20198;-95
2022/03/03 09:40:56;;;;;;;3.77;1.30;;;7.70;99.90;;;;;;6283848;22;20249;-94
2022/03/03 09:43:29;;;;;;;2.40;1.10;;;7.70;99.90;;;;;;6285000;22;20245;-94
2022/03/03 09:46:03;;;;;;;3.83;1.43;;;7.70;99.90;;;;;;6309790;22;20218;-94
2022/03/03 09:48:34;;;;;;;2.60;1.30;;;7.70;99.90;;;;;;6283478;22;20226;-94
2022/03/03 09:51:05;;;;;;;5.50;1.80;;;7.70;99.90;;;;;;6283896;22;20170;-95
2022/03/03 09:53:42;;;;;;;3.07;1.00;;;7.70;99.90;;;;;;6311436;22;20215;-94
2022/03/03 09:56:15;;;;;;;3.80;1.30;;;7.70;99.90;;;;;;6316270;22;20178;-94
2022/03/03 09:58:47;;;;;;;3.23;1.30;;;7.70;99.90;;;;;;6332952;22;20222;-93
2022/03/03 10:01:21;;;;;;;3.90;1.30;;;7.60;99.90;;;;;;6310712;22;20224;-95
2022/03/03 10:03:52;;;;;;;4.53;1.17;;;7.60;99.90;;;;;;6323889;22;20169;-95
2022/03/03 10:06:24;;;;;;;3.53;1.00;;;7.60;99.90;;;;;;6333639;22;20198;-94
2022/03/03 10:08:56;;;;;;;7.00;1.37;;;7.70;99.90;;;;;;6332929;22;20178;-94
2022/03/03 10:11:27;;;;;;;4.13;1.10;;;7.70;99.90;;;;;;6331936;22;20165;-94
2022/03/03 10:13:58;;;;;;;3.73;1.30;;;7.70;99.90;;;;;;6327951;22;20185;-93
2022/03/03 10:16:32;;;;;;;3.60;1.60;;;7.70;99.90;;;;;;6310091;22;20948;-94
2022/03/03 10:19:06;;;;;;;7.23;1.70;;;7.70;99.90;;;;;;6309040;22;20181;-94
2022/03/03 10:21:38;;;;;;;4.63;1.23;;;7.80;99.90;;;;;;6284305;22;20197;-94
2022/03/03 10:24:21;;;;;;;6.13;1.57;;;7.80;99.90;;;;;;6309708;22;20670;-94
2022/03/03 10:26:59;;;;;;;3.67;1.23;;;7.80;99.90;;;;;;6309117;22;20662;-95
2022/03/03 10:29:31;;;;;;;2.87;1.47;;;7.80;99.90;;;;;;6310151;22;20171;-94
2022/03/03 10:32:04;;;;;;;3.97;0.90;;;7.70;99.90;;;;;;6308821;22;20185;-94
2022/03/03 10:34:38;;;;;;;1.33;0.60;;;7.70;99.90;;;;;;6309425;22;20167;-93
2022/03/03 10:37:10;;;;;;;1.13;0.60;;;7.70;99.90;;;;;;6308747;22;20257;-94
2022/03/03 10:39:42;;;;;;;0.60;0.50;;;7.60;99.90;;;;;;6309957;22;20181;-96
2022/03/03 10:42:19;;;;;;;1.43;0.47;;;7.60;99.90;;;;;;6283549;22;20323;-94
2022/03/03 10:44:51;;;;;;;0.97;0.43;;;7.60;99.90;;;;;;6309353;22;20627;-95
2022/03/03 10:47:25;;;;;;;0.73;0.40;;;7.50;99.90;;;;;;6308066;22;20238;-95
2022/03/03 10:49:57;;;;;;;1.33;0.50;;;7.50;99.90;;;;;;6309532;22;20250;-94
2022/03/03 10:52:32;;;;;;;2.40;0.40;;;7.40;99.90;;;;;;6311533;22;20177;-95
2022/03/03 10:55:08;;;;;;;0.47;0.30;;;7.40;99.90;;;;;;6310778;22;20202;-94
2022/03/03 10:57:42;;;;;;;1.47;0.50;;;7.30;99.90;;;;;;6310480;22;20166;-94
2022/03/03 11:00:16;;;;;;;0.93;0.40;;;7.20;99.90;;;;;;6311028;22;20248;-94
2022/03/03 11:02:52;;;;;;;1.77;0.30;;;7.20;99.90;;;;;;6310720;22;20193;-95
2022/03/03 11:05:26;;;;;;;2.50;0.60;;;7.20;99.90;;;;;;6308800;22;20651;-92
2022/03/03 11:07:58;;;;;;;0.63;0.33;;;7.10;99.90;;;;;;6314261;22;20240;-94
2022/03/03 11:10:32;;;;;;;1.13;0.40;;;7.10;99.90;;;;;;6311537;22;20246;-95
2022/03/03 11:13:03;;;;;;;0.80;0.33;;;7.10;99.90;;;;;;6311394;22;20208;-93
2022/03/03 11:15:36;;;;;;;1.37;0.40;;;7.10;99.90;;;;;;6311652;22;20665;-93
2022/03/03 11:18:10;;;;;;;0.73;0.40;;;7.10;99.90;;;;;;6284051;22;20292;-94
2022/03/03 11:20:41;;;;;;;1.13;0.40;;;7.10;99.90;;;;;;6311118;22;20170;-93
2022/03/03 11:23:12;;;;;;;2.00;0.60;;;7.00;99.90;;;;;;6309627;22;20253;-93
2022/03/03 11:25:44;;;;;;;1.23;0.40;;;7.00;99.90;;;;;;6310989;22;20194;-93
2022/03/03 11:28:16;;;;;;;3.77;0.70;;;7.00;99.90;;;;;;6283596;22;20184;-94
2022/03/03 11:30:49;;;;;;;3.77;0.50;;;7.00;99.90;;;;;;6284726;22;20538;-94
2022/03/03 11:33:27;;;;;;;3.23;0.60;;;6.90;99.90;;;;;;6310671;22;20194;-94
2022/03/03 11:36:02;;;;;;;2.20;0.57;;;6.90;99.90;;;;;;6310878;22;20178;-94
2022/03/03 11:38:46;;;;;;;2.57;0.73;;;7.00;99.90;;;;;;6311552;22;20518;-93
2022/03/03 11:41:17;;;;;;;1.10;0.50;;;6.90;99.90;;;;;;6311334;22;20202;-93
2022/03/03 11:43:50;;;;;;;1.53;0.90;;;6.90;99.90;;;;;;6311613;22;20213;-94
2022/03/03 11:46:46;;;;;;;1.53;0.60;;;6.90;99.90;;;;;;6310409;22;20267;-94
2022/03/03 11:49:21;;;;;;;0.97;0.40;;;6.90;99.90;;;;;;6312670;22;20481;-94
2022/03/03 11:51:53;;;;;;;1.70;0.50;;;6.90;99.90;;;;;;6310952;22;20195;-94
2022/03/03 11:54:28;;;;;;;1.60;0.70;;;6.90;99.90;;;;;;6313485;22;20767;-95
2022/03/03 11:57:23;;;;;;;0.77;0.40;;;6.90;99.90;;;;;;6311463;22;20174;-95
2022/03/03 11:59:55;;;;;;;1.90;0.70;;;6.90;99.90;;;;;;6316818;22;20201;-94
2022/03/03 12:02:40;;;;;;;0.87;0.40;;;6.90;99.90;;;;;;6292850;22;20689;-95
2022/03/03 12:05:39;;;;;;;0.77;0.40;;;6.90;99.90;;;;;;6310441;22;20185;-94
2022/03/03 12:08:32;;;;;;;0.83;0.40;;;6.80;99.90;;;;;;6312565;22;20620;-93
2022/03/03 12:11:08;;;;;;;2.47;0.50;;;6.80;99.90;;;;;;6312668;22;20244;-93
2022/03/03 12:13:52;;;;;;;1.73;0.33;;;6.80;99.90;;;;;;6310718;22;20197;-95
2022/03/03 12:16:26;;;;;;;2.40;0.60;;;6.70;99.90;;;;;;6314228;22;20174;-95
2022/03/03 12:19:15;;;;;;;3.97;0.63;;;6.70;99.90;;;;;;6330493;22;20185;-95
2022/03/03 12:21:49;;;;;;;2.57;0.87;;;6.70;99.90;;;;;;6332206;22;20176;-94
2022/03/03 12:24:34;;;;;;;3.70;0.77;;;6.60;99.90;;;;;;6327382;22;20178;-94
2022/03/03 12:27:12;;;;;;;5.23;0.60;;;6.60;99.90;;;;;;6327514;22;20194;-94
2022/03/03 12:29:59;;;;;;;5.47;0.80;;;6.60;99.90;;;;;;6317049;22;20197;-95
2022/03/03 12:32:46;;;;;;;1.77;0.60;;;6.60;99.90;;;;;;6313867;22;20174;-94
2022/03/03 12:35:29;;;;;;;2.80;0.80;;;6.60;99.90;;;;;;6310746;22;20208;-93
2022/03/03 12:38:04;;;;;;;2.30;0.70;;;6.50;99.90;;;;;;6311489;22;20511;-94
2022/03/03 12:40:36;;;;;;;7.00;0.53;;;6.40;99.90;;;;;;6310597;22;20231;-95
2022/03/03 12:43:15;;;;;;;0.73;0.40;;;6.40;99.90;;;;;;6311473;22;20200;-94
2022/03/03 12:45:46;;;;;;;2.90;0.67;;;6.40;99.90;;;;;;6310681;22;20475;-94
2022/03/03 12:48:29;;;;;;;3.13;0.60;;;6.40;99.90;;;;;;6312621;22;20229;-94
2022/03/03 12:51:05;;;;;;;5.87;0.63;;;6.30;99.90;;;;;;6311567;22;20197;-94
2022/03/03 12:53:43;;;;;;;5.90;0.90;;;6.40;99.90;;;;;;6324267;22;20184;-92
2022/03/03 12:56:22;;;;;;;5.70;0.80;;;6.30;99.90;;;;;;6332028;22;20199;-95
2022/03/03 12:58:54;;;;;;;1.87;0.60;;;6.30;99.90;;;;;;6309810;22;20202;-94
2022/03/03 13:01:26;;;;;;;4.83;0.70;;;6.30;99.90;;;;;;6314124;22;20655;-94
2022/03/03 13:04:03;;;;;;;4.43;0.60;;;6.30;99.90;;;;;;6310897;22;20174;-93
2022/03/03 13:06:35;;;;;;;3.10;0.73;;;6.20;99.90;;;;;;6310904;22;20176;-93
2022/03/03 13:09:09;;;;;;;4.27;1.00;;;6.20;99.90;;;;;;6309199;22;20213;-94
2022/03/03 13:11:41;;;;;;;3.87;0.77;;;6.20;99.90;;;;;;6321619;22;20159;-92
2022/03/03 13:14:13;;;;;;;4.00;1.00;;;6.20;99.90;;;;;;6305861;22;20196;-91
2022/03/03 13:16:44;;;;;;;3.37;1.07;;;6.20;99.90;;;;;;6333187;22;20239;-92
2022/03/03 13:19:15;;;;;;;7.03;1.13;;;6.30;99.90;;;;;;6332123;22;20164;-94
2022/03/03 13:21:50;;;;;;;2.67;1.10;;;6.20;99.90;;;;;;6332267;22;20178;-94
2022/03/03 13:24:26;;;;;;;3.80;0.80;;;6.20;99.90;;;;;;6311495;22;20601;-93
2022/03/03 13:26:57;;;;;;;3.70;0.70;;;6.20;99.90;;;;;;6309626;22;20632;-95
2022/03/03 13:29:29;;;;;;;5.13;1.03;;;6.20;99.90;;;;;;6311933;22;20206;-94
2022/03/03 13:32:01;;;;;;;6.57;0.90;;;6.20;99.90;;;;;;6309640;22;20174;-94
2022/03/03 13:34:33;;;;;;;3.27;0.90;;;6.20;99.90;;;;;;6313956;22;20173;-93